Time;durP1;ratioP1;P1;durP2;ratioP2;P2;SDS_P1;SDS_P2;PMS_P1;PMS_P2;Temp;Humidity;BMP_temperature;BMP_pressure;BME280_temperature;BME280_humidity;BME280_pressure;Samples;Min_cycle;Max_cycle;Signal;HPM_P1;HPM_P2
2023/04/20 00:00:14;;;;;;;;;;;7.40;99.90;;;;;;5013111;28;19930;-70
2023/04/20 00:02:40;;;;;;;;;;;7.40;99.90;;;;;;5012803;28;19933;-71
2023/04/20 00:05:06;;;;;;;;;;;7.40;99.90;;;;;;5019431;28;19925;-70
2023/04/20 00:07:32;;;;;;;;;;;7.40;99.90;;;;;;5019284;28;19999;-70
2023/04/20 00:09:57;;;;;;;;;;;7.40;99.90;;;;;;5014097;28;19996;-71
2023/04/20 00:12:23;;;;;;;;;;;7.40;99.90;;;;;;5010266;28;20375;-70
2023/04/20 00:14:49;;;;;;;;;;;7.50;99.90;;;;;;5013183;28;20019;-70
2023/04/20 00:17:14;;;;;;;;;;;7.50;99.90;;;;;;5011926;28;20284;-69
2023/04/20 00:19:40;;;;;;;;;;;7.50;99.90;;;;;;5009115;28;20292;-71
2023/04/20 00:22:05;;;;;;;;;;;7.60;99.90;;;;;;5012002;28;20037;-70
2023/04/20 00:24:31;;;;;;;;;;;7.60;99.90;;;;;;5011183;28;20383;-70
2023/04/20 00:26:56;;;;;;;;;;;7.60;99.90;;;;;;5010730;28;19932;-70
2023/04/20 00:29:22;;;;;;;;;;;7.60;99.90;;;;;;5018439;28;20406;-75
2023/04/20 00:31:48;;;;;;;;;;;7.60;99.90;;;;;;5010441;28;19981;-71
2023/04/20 00:34:14;;;;;;;;;;;7.60;99.90;;;;;;5014553;28;19925;-71
2023/04/20 00:36:40;;;;;;;;;;;7.60;99.90;;;;;;5012253;28;19926;-71
2023/04/20 00:39:05;;;;;;;;;;;7.80;99.90;;;;;;5009511;28;19925;-71
2023/04/20 00:41:31;;;;;;;;;;;7.70;99.90;;;;;;5013463;28;19925;-71
2023/04/20 00:43:57;;;;;;;;;;;8.00;99.90;;;;;;5023750;28;20346;-71
2023/04/20 00:46:22;;;;;;;;;;;7.90;99.90;;;;;;5019702;28;19956;-71
2023/04/20 00:48:52;;;;;;;;;;;7.80;99.90;;;;;;5011837;28;19925;-71
2023/04/20 00:51:18;;;;;;;;;;;7.80;99.90;;;;;;5013253;28;20379;-71
2023/04/20 00:53:44;;;;;;;;;;;7.90;99.90;;;;;;5010672;28;20399;-71
2023/04/20 00:56:11;;;;;;;;;;;7.80;99.90;;;;;;5009137;28;19975;-71
2023/04/20 00:58:37;;;;;;;;;;;7.80;99.90;;;;;;5010731;28;19973;-71
2023/04/20 01:01:04;;;;;;;;;;;7.80;99.90;;;;;;5009941;28;20450;-71
2023/04/20 01:03:30;;;;;;;;;;;7.70;99.90;;;;;;5010201;28;19932;-71
2023/04/20 01:05:56;;;;;;;;;;;7.70;99.90;;;;;;5012298;28;19925;-72
2023/04/20 01:08:24;;;;;;;;;;;7.70;99.90;;;;;;5004269;28;19926;-71
2023/04/20 01:10:50;;;;;;;;;;;7.70;99.90;;;;;;5001942;28;19925;-71
2023/04/20 01:13:15;;;;;;;;;;;7.70;99.90;;;;;;5009727;28;19932;-71
2023/04/20 01:15:41;;;;;;;;;;;7.70;99.90;;;;;;5011558;28;19972;-71
2023/04/20 01:18:08;;;;;;;;;;;7.70;99.90;;;;;;5010913;28;20441;-71
2023/04/20 01:20:33;;;;;;;;;;;7.90;99.90;;;;;;5006986;28;19925;-71
2023/04/20 01:22:59;;;;;;;;;;;7.80;99.90;;;;;;5012126;28;19925;-71
2023/04/20 01:25:25;;;;;;;;;;;7.90;99.90;;;;;;4996687;28;19972;-71
2023/04/20 01:27:50;;;;;;;;;;;7.90;99.90;;;;;;5008099;28;19965;-71
2023/04/20 01:30:16;;;;;;;;;;;7.90;99.90;;;;;;5010656;28;20005;-71
2023/04/20 01:32:41;;;;;;;;;;;7.90;99.90;;;;;;5009857;28;19930;-71
2023/04/20 01:35:07;;;;;;;;;;;7.90;99.90;;;;;;5007286;28;19925;-70
2023/04/20 01:37:32;;;;;;;;;;;7.80;99.90;;;;;;5010399;28;19937;-70
2023/04/20 01:39:58;;;;;;;;;;;7.80;99.90;;;;;;5002915;28;20332;-71
2023/04/20 01:42:23;;;;;;;;;;;7.70;99.90;;;;;;5002245;28;19925;-71
2023/04/20 01:44:49;;;;;;;;;;;7.70;99.90;;;;;;5008164;28;19925;-71
2023/04/20 01:47:14;;;;;;;;;;;7.80;99.90;;;;;;5007677;28;19926;-71
2023/04/20 01:49:40;;;;;;;;;;;7.60;99.90;;;;;;5020273;28;19930;-70
2023/04/20 01:52:06;;;;;;;;;;;7.60;99.90;;;;;;5008155;28;19925;-71
2023/04/20 01:54:31;;;;;;;;;;;7.60;99.90;;;;;;5009646;28;19925;-70
2023/04/20 01:56:57;;;;;;;;;;;7.50;99.90;;;;;;5009018;28;20454;-71
2023/04/20 01:59:22;;;;;;;;;;;7.50;99.90;;;;;;5003074;28;19992;-71
2023/04/20 02:01:48;;;;;;;;;;;7.40;99.90;;;;;;5012313;28;19933;-71
2023/04/20 02:04:13;;;;;;;;;;;7.40;99.90;;;;;;5013584;28;19929;-70
2023/04/20 02:06:39;;;;;;;;;;;7.30;99.90;;;;;;5008903;28;20388;-71
2023/04/20 02:09:05;;;;;;;;;;;7.40;99.90;;;;;;5002869;28;19926;-71
2023/04/20 02:11:30;;;;;;;;;;;7.30;99.90;;;;;;5009579;28;19933;-71
2023/04/20 02:13:56;;;;;;;;;;;7.30;99.90;;;;;;5013043;28;19960;-71
2023/04/20 02:16:22;;;;;;;;;;;7.20;99.90;;;;;;5010903;28;19925;-71
2023/04/20 02:18:48;;;;;;;;;;;7.20;99.90;;;;;;5006681;28;20319;-71
2023/04/20 02:21:13;;;;;;;;;;;7.20;99.90;;;;;;5010993;28;19926;-71
2023/04/20 02:23:39;;;;;;;;;;;7.10;99.90;;;;;;5003321;28;19929;-71
2023/04/20 02:26:04;;;;;;;;;;;7.10;99.90;;;;;;5006173;28;20295;-71
2023/04/20 02:28:30;;;;;;;;;;;7.10;99.90;;;;;;5015864;28;19937;-71
2023/04/20 02:30:55;;;;;;;;;;;7.10;99.90;;;;;;5014813;28;19963;-71
2023/04/20 02:33:21;;;;;;;;;;;7.10;99.90;;;;;;5025479;28;19933;-71
2023/04/20 02:35:47;;;;;;;;;;;7.10;99.90;;;;;;5027196;28;19933;-71
2023/04/20 02:38:13;;;;;;;;;;;7.10;99.90;;;;;;5028385;28;19971;-71
2023/04/20 02:40:39;;;;;;;;;;;7.10;99.90;;;;;;5010691;28;20470;-71
2023/04/20 02:43:04;;;;;;;;;;;7.10;99.90;;;;;;5014754;28;20000;-70
2023/04/20 02:45:30;;;;;;;;;;;7.20;99.90;;;;;;5007706;28;20023;-71
2023/04/20 02:47:56;;;;;;;;;;;7.30;99.90;;;;;;5013215;28;20399;-71
2023/04/20 02:50:21;;;;;;;;;;;7.30;99.90;;;;;;5004032;28;19925;-71
2023/04/20 02:52:47;;;;;;;;;;;7.40;99.90;;;;;;5008804;28;19933;-71
2023/04/20 02:55:12;;;;;;;;;;;7.40;99.90;;;;;;5017848;28;19925;-71
2023/04/20 02:57:38;;;;;;;;;;;7.40;99.90;;;;;;5011458;28;20012;-71
2023/04/20 03:00:04;;;;;;;;;;;7.50;99.90;;;;;;5009011;28;20297;-71
2023/04/20 03:02:29;;;;;;;;;;;7.60;99.90;;;;;;5019322;28;20372;-71
2023/04/20 03:04:55;;;;;;;;;;;7.60;99.90;;;;;;5011407;28;20009;-71
2023/04/20 03:07:21;;;;;;;;;;;7.60;99.90;;;;;;5010842;28;20392;-71
2023/04/20 03:09:46;;;;;;;;;;;7.80;99.90;;;;;;5020139;28;19931;-71
2023/04/20 03:12:12;;;;;;;;;;;7.90;99.90;;;;;;5003944;28;19926;-72
2023/04/20 03:14:37;;;;;;;;;;;7.90;99.90;;;;;;5013812;28;19929;-71
2023/04/20 03:17:03;;;;;;;;;;;8.00;99.90;;;;;;5002925;28;20012;-71
2023/04/20 03:19:28;;;;;;;;;;;8.00;99.90;;;;;;5013070;28;19933;-71
2023/04/20 03:21:54;;;;;;;;;;;8.10;99.90;;;;;;5010833;28;19929;-71
2023/04/20 03:24:21;;;;;;;;;;;8.10;99.90;;;;;;5012927;28;19928;-71
2023/04/20 03:26:46;;;;;;;;;;;8.10;99.90;;;;;;5017770;28;19931;-71
2023/04/20 03:29:12;;;;;;;;;;;8.20;99.90;;;;;;5026756;28;20016;-71
2023/04/20 03:31:37;;;;;;;;;;;8.70;99.90;;;;;;5020881;28;20017;-71
2023/04/20 03:34:03;;;;;;;;;;;8.20;99.90;;;;;;5011283;28;19933;-71
2023/04/20 03:36:28;;;;;;;;;;;8.20;99.90;;;;;;5008494;28;19949;-71
2023/04/20 03:38:54;;;;;;;;;;;8.30;99.90;;;;;;5013938;28;20000;-71
2023/04/20 03:41:19;;;;;;;;;;;8.30;99.90;;;;;;5012663;28;19940;-71
2023/04/20 03:43:45;;;;;;;;;;;8.30;99.90;;;;;;5009213;28;19930;-71
2023/04/20 03:46:10;;;;;;;;;;;8.30;99.90;;;;;;5009270;28;19925;-71
2023/04/20 03:48:36;;;;;;;;;;;8.20;99.90;;;;;;5013527;28;19926;-71
2023/04/20 03:51:02;;;;;;;;;;;8.30;99.90;;;;;;5002020;28;19926;-71
2023/04/20 03:53:30;;;;;;;;;;;8.30;99.90;;;;;;5007030;28;20196;-71
2023/04/20 03:55:55;;;;;;;;;;;8.30;99.90;;;;;;5007598;28;19926;-71
2023/04/20 03:58:21;;;;;;;;;;;8.30;99.90;;;;;;5008034;28;20292;-71
2023/04/20 04:00:47;;;;;;;;;;;8.50;99.90;;;;;;5004834;28;19925;-71
2023/04/20 04:03:12;;;;;;;;;;;8.30;99.90;;;;;;5020546;28;19975;-71
2023/04/20 04:05:39;;;;;;;;;;;8.30;99.90;;;;;;5015269;28;19925;-71
2023/04/20 04:08:04;;;;;;;;;;;8.20;99.90;;;;;;5014505;28;19929;-71
2023/04/20 04:10:30;;;;;;;;;;;8.30;99.90;;;;;;5010838;28;20466;-71
2023/04/20 04:12:55;;;;;;;;;;;8.30;99.90;;;;;;5012188;28;19926;-71
2023/04/20 04:15:21;;;;;;;;;;;8.30;99.90;;;;;;5013202;28;19926;-70
2023/04/20 04:17:47;;;;;;;;;;;8.30;99.90;;;;;;5009484;28;19926;-71
2023/04/20 04:20:12;;;;;;;;;;;8.30;99.90;;;;;;5012248;28;19929;-71
2023/04/20 04:22:39;;;;;;;;;;;8.30;99.90;;;;;;5010491;28;19933;-71
2023/04/20 04:25:05;;;;;;;;;;;8.20;99.90;;;;;;5011193;28;19925;-71
2023/04/20 04:27:33;;;;;;;;;;;8.20;99.90;;;;;;5011540;28;20381;-71
2023/04/20 04:29:59;;;;;;;;;;;8.20;99.90;;;;;;5018521;28;20039;-72
2023/04/20 04:32:25;;;;;;;;;;;8.10;99.90;;;;;;5010629;28;19957;-71
2023/04/20 04:34:51;;;;;;;;;;;8.10;99.90;;;;;;5011457;28;19926;-70
2023/04/20 04:37:17;;;;;;;;;;;8.00;99.90;;;;;;5011715;28;20032;-70
2023/04/20 04:39:43;;;;;;;;;;;8.00;99.90;;;;;;5011761;28;20264;-71
2023/04/20 04:42:08;;;;;;;;;;;8.10;99.90;;;;;;5009527;28;20011;-71
2023/04/20 04:44:34;;;;;;;;;;;8.00;99.90;;;;;;5010087;28;20375;-71
2023/04/20 04:47:01;;;;;;;;;;;7.90;99.90;;;;;;5014023;28;20054;-71
2023/04/20 04:49:28;;;;;;;;;;;7.90;99.90;;;;;;5007642;28;19925;-71
2023/04/20 04:51:53;;;;;;;;;;;7.90;99.90;;;;;;5019997;28;20395;-71
2023/04/20 04:54:19;;;;;;;;;;;7.90;99.90;;;;;;5011065;28;19930;-71
2023/04/20 04:56:44;;;;;;;;;;;7.90;99.90;;;;;;5027239;28;19980;-71
2023/04/20 04:59:10;;;;;;;;;;;7.90;99.90;;;;;;5003127;28;19932;-70
2023/04/20 05:01:35;;;;;;;;;;;7.90;99.90;;;;;;5010693;28;20430;-71
2023/04/20 05:04:01;;;;;;;;;;;7.90;99.90;;;;;;5013204;28;19984;-71
2023/04/20 05:06:26;;;;;;;;;;;7.90;99.90;;;;;;5009459;28;20302;-71
2023/04/20 05:08:52;;;;;;;;;;;7.90;99.90;;;;;;5002810;28;20335;-71
2023/04/20 05:11:18;;;;;;;;;;;8.70;99.90;;;;;;5005309;28;20370;-71
2023/04/20 05:13:43;;;;;;;;;;;7.90;99.90;;;;;;5005540;28;19925;-71
2023/04/20 05:16:09;;;;;;;;;;;7.80;99.90;;;;;;5007295;28;19972;-71
2023/04/20 05:18:34;;;;;;;;;;;7.80;99.90;;;;;;5011779;28;19931;-71
2023/04/20 05:21:00;;;;;;;;;;;7.80;99.90;;;;;;5013027;28;19929;-71
2023/04/20 05:23:25;;;;;;;;;;;7.80;99.90;;;;;;5018344;28;19932;-71
2023/04/20 05:25:51;;;;;;;;;;;7.70;99.90;;;;;;5013795;28;20414;-70
2023/04/20 05:28:17;;;;;;;;;;;8.70;99.90;;;;;;5011005;28;19925;-70
2023/04/20 05:30:43;;;;;;;;;;;7.60;99.90;;;;;;5002832;28;19925;-70
2023/04/20 05:33:08;;;;;;;;;;;7.50;99.90;;;;;;5008907;28;19972;-70
2023/04/20 05:35:34;;;;;;;;;;;7.40;99.90;;;;;;5002786;28;19929;-70
2023/04/20 05:38:02;;;;;;;;;;;7.40;99.90;;;;;;5008033;28;19955;-70
2023/04/20 05:40:28;;;;;;;;;;;7.30;99.90;;;;;;5006904;28;19925;-70
2023/04/20 05:42:54;;;;;;;;;;;7.30;99.90;;;;;;5008271;28;19929;-70
2023/04/20 05:45:19;;;;;;;;;;;7.30;99.90;;;;;;5002638;28;19957;-70
2023/04/20 05:47:51;;;;;;;;;;;7.30;99.90;;;;;;5005441;28;19933;-69
2023/04/20 05:50:17;;;;;;;;;;;7.30;99.90;;;;;;5002844;28;20375;-70
2023/04/20 05:52:42;;;;;;;;;;;7.40;99.90;;;;;;5018037;28;19932;-70
2023/04/20 05:55:08;;;;;;;;;;;7.40;99.90;;;;;;5013067;28;19933;-70
2023/04/20 05:57:40;;;;;;;;;;;7.40;99.90;;;;;;5006759;28;20431;-70
2023/04/20 06:00:08;;;;;;;;;;;7.40;99.90;;;;;;4999301;28;19929;-70
2023/04/20 06:02:34;;;;;;;;;;;7.50;99.90;;;;;;5006622;28;19926;-70
2023/04/20 06:05:00;;;;;;;;;;;7.50;99.90;;;;;;5011223;28;20314;-70
2023/04/20 06:07:25;;;;;;;;;;;7.50;99.90;;;;;;5004087;28;20016;-70
2023/04/20 06:09:51;;;;;;;;;;;7.50;99.90;;;;;;5009579;28;20379;-70
2023/04/20 06:12:16;;;;;;;;;;;7.50;99.90;;;;;;5003246;28;19992;-70
2023/04/20 06:14:42;;;;;;;;;;;7.50;99.90;;;;;;5013103;28;20016;-70
2023/04/20 06:17:07;;;;;;;;;;;7.50;99.90;;;;;;5009813;28;19979;-70
2023/04/20 06:19:33;;;;;;;;;;;7.40;99.90;;;;;;5007832;28;19925;-71
2023/04/20 06:21:58;;;;;;;;;;;7.40;99.90;;;;;;5005662;28;19925;-70
2023/04/20 06:24:24;;;;;;;;;;;7.30;99.90;;;;;;5000557;28;19926;-71
2023/04/20 06:26:49;;;;;;;;;;;7.20;99.90;;;;;;5008294;28;19926;-71
2023/04/20 06:29:15;;;;;;;;;;;7.10;99.90;;;;;;5003842;28;19979;-70
2023/04/20 06:31:41;;;;;;;;;;;7.00;99.90;;;;;;5006966;28;20007;-70
2023/04/20 06:34:06;;;;;;;;;;;6.90;99.90;;;;;;5007542;28;20039;-71
2023/04/20 06:36:32;;;;;;;;;;;6.90;99.90;;;;;;5011246;28;19979;-70
2023/04/20 06:38:57;;;;;;;;;;;6.80;99.90;;;;;;5012885;28;19925;-70
2023/04/20 06:41:23;;;;;;;;;;;6.70;99.90;;;;;;5010490;28;20083;-71
2023/04/20 06:43:48;;;;;;;;;;;6.70;99.90;;;;;;5011300;28;19926;-70
2023/04/20 06:46:14;;;;;;;;;;;6.70;99.90;;;;;;5012495;28;19933;-70
2023/04/20 06:48:39;;;;;;;;;;;6.70;99.90;;;;;;5004716;28;19933;-70
2023/04/20 06:51:05;;;;;;;;;;;6.60;99.90;;;;;;5017238;28;20008;-70
2023/04/20 06:53:30;;;;;;;;;;;6.70;99.90;;;;;;5008502;28;19930;-70
2023/04/20 06:55:56;;;;;;;;;;;7.10;99.90;;;;;;5011808;28;19925;-70
2023/04/20 06:58:21;;;;;;;;;;;6.50;99.90;;;;;;5018725;28;19972;-70
2023/04/20 07:00:47;;;;;;;;;;;6.60;99.90;;;;;;5011038;28;19972;-70
2023/04/20 07:03:12;;;;;;;;;;;6.60;99.90;;;;;;5012450;28;19969;-70
2023/04/20 07:05:38;;;;;;;;;;;6.60;99.90;;;;;;5012848;28;19936;-70
2023/04/20 07:08:04;;;;;;;;;;;6.50;99.90;;;;;;5032137;28;20034;-70
2023/04/20 07:10:29;;;;;;;;;;;6.50;99.90;;;;;;5030853;28;19930;-70
2023/04/20 07:12:55;;;;;;;;;;;6.40;99.90;;;;;;5015313;28;19926;-71
2023/04/20 07:15:21;;;;;;;;;;;6.40;99.90;;;;;;5011556;28;20351;-72
2023/04/20 07:17:47;;;;;;;;;;;6.40;99.90;;;;;;5013348;28;19925;-71
2023/04/20 07:20:12;;;;;;;;;;;6.60;99.90;;;;;;5014181;28;19983;-71
2023/04/20 07:22:38;;;;;;;;;;;6.50;99.90;;;;;;5016045;28;20363;-71
2023/04/20 07:25:04;;;;;;;;;;;6.40;99.90;;;;;;5012364;28;20031;-71
2023/04/20 07:27:34;;;;;;;;;;;6.40;99.90;;;;;;5013348;28;19925;-70
2023/04/20 07:29:59;;;;;;;;;;;6.40;99.90;;;;;;4999137;28;19926;-70
2023/04/20 07:32:25;;;;;;;;;;;6.40;99.90;;;;;;5009261;28;20380;-70
2023/04/20 07:34:50;;;;;;;;;;;6.50;99.90;;;;;;4995356;28;19926;-70
2023/04/20 07:37:16;;;;;;;;;;;6.40;99.90;;;;;;4997134;28;19926;-71
2023/04/20 07:39:41;;;;;;;;;;;6.40;99.90;;;;;;4998015;28;19926;-71
2023/04/20 07:42:07;;;;;;;;;;;6.60;99.90;;;;;;5016673;28;20429;-70
2023/04/20 07:44:34;;;;;;;;;;;6.50;99.90;;;;;;4996457;28;19926;-70
2023/04/20 07:47:00;;;;;;;;;;;6.50;99.90;;;;;;4999497;28;19925;-70
2023/04/20 07:49:26;;;;;;;;;;;6.50;99.90;;;;;;5012925;28;19932;-71
2023/04/20 07:51:51;;;;;;;;;;;6.50;99.90;;;;;;5015609;28;19925;-71
2023/04/20 07:54:17;;;;;;;;;;;6.50;99.90;;;;;;5014269;28;19925;-71
2023/04/20 07:56:42;;;;;;;;;;;6.50;99.90;;;;;;5008967;28;19926;-71
2023/04/20 07:59:08;;;;;;;;;;;6.60;99.90;;;;;;5005786;28;19972;-71
2023/04/20 08:01:34;;;;;;;;;;;6.80;99.90;;;;;;5013162;28;19926;-70
2023/04/20 08:03:59;;;;;;;;;;;6.60;99.90;;;;;;5009644;28;19976;-71
2023/04/20 08:06:26;;;;;;;;;;;6.50;99.90;;;;;;5003837;28;19969;-74
2023/04/20 08:08:51;;;;;;;;;;;6.60;99.90;;;;;;4998009;28;20431;-71
2023/04/20 08:11:17;;;;;;;;;;;6.50;99.90;;;;;;5015581;28;20017;-71
2023/04/20 08:13:42;;;;;;;;;;;6.50;99.90;;;;;;5014711;28;19925;-71
2023/04/20 08:16:08;;;;;;;;;;;6.50;99.90;;;;;;5006955;28;19925;-71
2023/04/20 08:18:34;;;;;;;;;;;6.50;99.90;;;;;;5015329;28;19925;-71
2023/04/20 08:20:59;;;;;;;;;;;6.50;99.90;;;;;;4995916;28;19926;-71
2023/04/20 08:23:26;;;;;;;;;;;6.60;99.90;;;;;;5006779;28;19937;-71
2023/04/20 08:25:55;;;;;;;;;;;6.60;99.90;;;;;;5013529;28;19925;-71
2023/04/20 08:28:21;;;;;;;;;;;6.80;99.90;;;;;;5007836;28;20012;-71
2023/04/20 08:30:47;;;;;;;;;;;6.60;99.90;;;;;;5010685;28;20356;-71
2023/04/20 08:33:12;;;;;;;;;;;6.60;99.90;;;;;;5016104;28;19976;-69
2023/04/20 08:35:38;;;;;;;;;;;6.50;99.90;;;;;;5015880;28;20450;-70
2023/04/20 08:38:04;;;;;;;;;;;6.50;99.90;;;;;;5010185;28;19952;-70
2023/04/20 08:40:30;;;;;;;;;;;6.50;99.90;;;;;;5006517;28;20009;-70
2023/04/20 08:42:56;;;;;;;;;;;6.50;99.90;;;;;;5012910;28;20340;-70
2023/04/20 08:45:21;;;;;;;;;;;6.50;99.90;;;;;;5013530;28;19972;-71
2023/04/20 08:47:48;;;;;;;;;;;6.50;99.90;;;;;;5015302;28;19971;-71
2023/04/20 08:50:14;;;;;;;;;;;6.60;99.90;;;;;;5005437;28;20291;-70
2023/04/20 08:52:40;;;;;;;;;;;6.50;99.90;;;;;;5014604;28;20021;-71
2023/04/20 08:55:06;;;;;;;;;;;6.60;99.90;;;;;;5007315;28;20019;-71
2023/04/20 08:57:32;;;;;;;;;;;6.70;99.90;;;;;;5013556;28;20012;-70
2023/04/20 08:59:57;;;;;;;;;;;6.90;99.90;;;;;;5005031;28;20012;-70
2023/04/20 09:02:23;;;;;;;;;;;6.90;99.90;;;;;;5002505;28;19929;-71
2023/04/20 09:04:59;;;;;;;;;;;7.00;99.90;;;;;;4997647;28;20020;-71
2023/04/20 09:07:25;;;;;;;;;;;7.10;99.90;;;;;;4995383;28;19932;-71
2023/04/20 09:09:54;;;;;;;;;;;7.10;99.90;;;;;;4995273;28;19926;-71
2023/04/20 09:12:20;;;;;;;;;;;7.10;99.90;;;;;;5009389;28;20425;-71
2023/04/20 09:14:46;;;;;;;;;;;7.20;99.90;;;;;;5013662;28;20016;-70
2023/04/20 09:17:13;;;;;;;;;;;7.30;99.90;;;;;;5013642;28;19976;-70
2023/04/20 09:19:39;;;;;;;;;;;7.40;99.90;;;;;;5014301;28;19925;-70
2023/04/20 09:22:05;;;;;;;;;;;7.40;99.90;;;;;;5012502;28;19929;-70
2023/04/20 09:24:31;;;;;;;;;;;7.60;99.90;;;;;;5010513;28;20299;-69
2023/04/20 09:26:57;;;;;;;;;;;7.60;99.90;;;;;;5013191;28;19925;-69
2023/04/20 09:29:24;;;;;;;;;;;7.50;99.90;;;;;;5011981;28;19925;-69
2023/04/20 09:31:50;;;;;;;;;;;7.50;99.90;;;;;;5011208;28;20387;-70
2023/04/20 09:34:16;;;;;;;;;;;7.60;99.90;;;;;;5011005;28;19977;-70
2023/04/20 09:36:42;;;;;;;;;;;7.70;99.90;;;;;;5012361;28;20522;-70
2023/04/20 09:39:08;;;;;;;;;;;7.80;99.90;;;;;;5012366;28;19925;-70
2023/04/20 09:41:34;;;;;;;;;;;7.70;99.90;;;;;;5011275;28;19931;-70
2023/04/20 09:44:00;;;;;;;;;;;7.70;99.90;;;;;;5005302;28;20364;-69
2023/04/20 09:46:27;;;;;;;;;;;7.90;99.90;;;;;;5013835;28;20273;-69
2023/04/20 09:48:53;;;;;;;;;;;8.70;99.90;;;;;;5012654;28;20282;-69
2023/04/20 09:51:19;;;;;;;;;;;8.00;99.90;;;;;;5012690;28;20004;-69
2023/04/20 09:53:45;;;;;;;;;;;8.10;99.90;;;;;;5011678;28;19995;-69
2023/04/20 09:56:11;;;;;;;;;;;8.20;99.90;;;;;;5017752;28;19945;-69
2023/04/20 09:58:37;;;;;;;;;;;8.10;99.90;;;;;;4999555;28;20379;-69
2023/04/20 10:01:02;;;;;;;;;;;8.30;99.90;;;;;;5004198;28;19937;-70
2023/04/20 10:03:28;;;;;;;;;;;8.30;99.90;;;;;;5011772;28;20015;-69
2023/04/20 10:05:57;;;;;;;;;;;8.20;99.90;;;;;;5020825;28;19925;-69
2023/04/20 10:08:23;;;;;;;;;;;8.30;99.90;;;;;;5010783;28;19925;-69
2023/04/20 10:10:49;;;;;;;;;;;8.50;99.90;;;;;;5012593;28;19926;-69
2023/04/20 10:13:17;;;;;;;;;;;8.40;99.90;;;;;;5008446;28;20371;-69
2023/04/20 10:15:43;;;;;;;;;;;8.50;99.90;;;;;;5016857;28;19925;-69
2023/04/20 10:18:19;;;;;;;;;;;8.60;99.90;;;;;;5012711;28;20016;-69
2023/04/20 10:20:44;;;;;;;;;;;8.60;99.90;;;;;;5021976;28;19929;-70
2023/04/20 10:23:10;;;;;;;;;;;8.60;99.90;;;;;;5020109;28;20412;-69
2023/04/20 10:25:36;;;;;;;;;;;8.60;99.90;;;;;;5011525;28;19926;-70
2023/04/20 10:28:04;;;;;;;;;;;8.60;99.90;;;;;;5009803;28;19932;-70
2023/04/20 10:30:30;;;;;;;;;;;8.40;99.90;;;;;;5013753;28;19926;-70
2023/04/20 10:33:06;;;;;;;;;;;8.40;99.90;;;;;;5019740;28;20024;-70
2023/04/20 10:35:51;;;;;;;;;;;8.30;99.90;;;;;;5007708;28;19984;-70
2023/04/20 10:38:33;;;;;;;;;;;8.20;99.90;;;;;;5017444;28;20510;-70
2023/04/20 10:41:06;;;;;;;;;;;8.20;99.90;;;;;;5006394;28;19926;-70
2023/04/20 10:43:31;;;;;;;;;;;8.20;99.90;;;;;;5005403;28;19929;-69
2023/04/20 10:45:57;;;;;;;;;;;8.20;99.90;;;;;;5021793;28;19932;-69
2023/04/20 10:48:22;;;;;;;;;;;8.00;99.90;;;;;;5016121;28;19929;-69
2023/04/20 10:50:48;;;;;;;;;;;8.00;99.90;;;;;;5028347;28;20291;-70
2023/04/20 10:53:20;;;;;;;;;;;8.00;99.90;;;;;;5014483;28;19925;-69
2023/04/20 10:55:46;;;;;;;;;;;7.90;99.90;;;;;;5015190;28;19926;-69
2023/04/20 10:58:24;;;;;;;;;;;7.90;99.90;;;;;;5013609;28;19925;-69
2023/04/20 11:00:59;;;;;;;;;;;8.00;99.90;;;;;;5013978;28;19948;-69
2023/04/20 11:03:26;;;;;;;;;;;8.10;99.90;;;;;;5008642;28;19925;-72
2023/04/20 11:05:51;;;;;;;;;;;8.20;99.90;;;;;;5017009;28;19925;-70
2023/04/20 11:08:17;;;;;;;;;;;8.20;99.90;;;;;;5012517;28;20257;-69
2023/04/20 11:10:42;;;;;;;;;;;8.30;99.90;;;;;;5016671;28;19933;-69
2023/04/20 11:13:22;;;;;;;;;;;8.40;99.90;;;;;;5014456;28;19929;-70
2023/04/20 11:15:48;;;;;;;;;;;8.30;99.90;;;;;;5009019;28;19925;-70
2023/04/20 11:18:13;;;;;;;;;;;8.30;99.90;;;;;;5020307;28;20295;-70
2023/04/20 11:20:49;;;;;;;;;;;8.30;99.90;;;;;;5012861;28;19926;-70
2023/04/20 11:23:15;;;;;;;;;;;8.30;99.90;;;;;;5015631;28;20004;-70
2023/04/20 11:25:49;;;;;;;;;;;8.40;99.90;;;;;;5007788;28;19932;-69
2023/04/20 11:28:15;;;;;;;;;;;8.40;99.90;;;;;;5014275;28;19979;-70
2023/04/20 11:30:41;;;;;;;;;;;8.50;99.90;;;;;;5005592;28;19925;-70
2023/04/20 11:33:06;;;;;;;;;;;8.50;99.90;;;;;;5014851;28;19925;-70
2023/04/20 11:35:36;;;;;;;;;;;8.50;99.90;;;;;;5004789;28;19933;-69
2023/04/20 11:38:02;;;;;;;;;;;8.50;99.90;;;;;;4999939;28;19926;-69
2023/04/20 11:40:27;;;;;;;;;;;8.50;99.90;;;;;;5018133;28;20409;-70
2023/04/20 11:42:53;;;;;;;;;;;8.40;99.90;;;;;;4997693;28;19926;-73
2023/04/20 11:45:18;;;;;;;;;;;8.50;99.90;;;;;;4996729;28;19929;-69
2023/04/20 11:47:45;;;;;;;;;;;8.40;99.90;;;;;;4999667;28;19983;-71
2023/04/20 11:50:11;;;;;;;;;;;8.40;99.90;;;;;;5007051;28;19988;-70
2023/04/20 11:52:37;;;;;;;;;;;8.40;99.90;;;;;;5014736;28;19929;-71
2023/04/20 11:55:02;;;;;;;;;;;8.40;99.90;;;;;;4998003;28;19933;-71
2023/04/20 11:57:28;;;;;;;;;;;8.40;99.90;;;;;;5001500;28;19925;-71
2023/04/20 11:59:53;;;;;;;;;;;8.50;99.90;;;;;;5014904;28;19980;-71
2023/04/20 12:02:19;;;;;;;;;;;8.90;99.90;;;;;;5014181;28;20007;-71
2023/04/20 12:04:45;;;;;;;;;;;9.40;99.90;;;;;;4999036;28;20287;-71
2023/04/20 12:07:10;;;;;;;;;;;9.90;99.90;;;;;;4995081;28;19926;-71
2023/04/20 12:09:37;;;;;;;;;;;10.50;99.90;;;;;;4996280;28;20295;-71
2023/04/20 12:12:07;;;;;;;;;;;10.90;99.90;;;;;;5008693;28;20010;-71
2023/04/20 12:14:33;;;;;;;;;;;11.00;99.90;;;;;;5015439;28;19932;-71
2023/04/20 12:16:59;;;;;;;;;;;10.90;99.90;;;;;;5014386;28;19925;-71
2023/04/20 12:19:24;;;;;;;;;;;10.80;99.90;;;;;;5007941;28;20438;-70
2023/04/20 12:21:50;;;;;;;;;;;10.60;99.90;;;;;;5013691;28;19929;-70
2023/04/20 12:24:15;;;;;;;;;;;10.30;99.90;;;;;;5015539;28;19925;-71
2023/04/20 12:26:41;;;;;;;;;;;10.40;99.90;;;;;;5008735;28;19925;-70
2023/04/20 12:29:06;;;;;;;;;;;10.30;99.90;;;;;;4994622;28;20009;-70
2023/04/20 12:31:32;;;;;;;;;;;10.20;99.90;;;;;;5000974;28;19995;-69
2023/04/20 12:33:57;;;;;;;;;;;10.10;99.90;;;;;;5012638;28;19933;-70
2023/04/20 12:36:23;;;;;;;;;;;10.10;99.90;;;;;;4998274;28;20344;-70
2023/04/20 12:38:51;;;;;;;;;;;10.10;99.90;;;;;;4997186;28;19933;-70
2023/04/20 12:41:17;;;;;;;;;;;10.00;99.90;;;;;;5015147;28;20330;-70
2023/04/20 12:43:42;;;;;;;;;;;10.30;99.90;;;;;;5011726;28;19926;-70
2023/04/20 12:46:08;;;;;;;;;;;10.80;99.90;;;;;;5015124;28;20402;-70
2023/04/20 12:48:33;;;;;;;;;;;11.00;99.90;;;;;;5011199;28;19987;-69
2023/04/20 12:50:59;;;;;;;;;;;10.80;99.90;;;;;;5010912;28;19926;-70
2023/04/20 12:53:24;;;;;;;;;;;11.40;99.90;;;;;;5010883;28;19971;-70
2023/04/20 12:55:50;;;;;;;;;;;12.10;99.90;;;;;;5005670;28;19930;-71
2023/04/20 12:58:16;;;;;;;;;;;12.70;99.90;;;;;;5007705;28;19926;-72
2023/04/20 13:00:42;;;;;;;;;;;12.70;99.90;;;;;;5009295;28;19933;-70
2023/04/20 13:03:08;;;;;;;;;;;12.90;99.90;;;;;;5008939;28;19925;-71
2023/04/20 13:05:33;;;;;;;;;;;12.90;99.90;;;;;;5002181;28;20023;-71
2023/04/20 13:07:59;;;;;;;;;;;13.40;99.90;;;;;;5013485;28;19965;-71
2023/04/20 13:10:25;;;;;;;;;;;13.40;99.90;;;;;;5012799;28;20302;-71
2023/04/20 13:12:51;;;;;;;;;;;13.50;99.90;;;;;;5010131;28;20001;-71
2023/04/20 13:15:18;;;;;;;;;;;14.40;99.90;;;;;;5012665;28;19925;-70
2023/04/20 13:17:44;;;;;;;;;;;14.20;99.90;;;;;;5012710;28;19976;-70
2023/04/20 13:20:10;;;;;;;;;;;14.20;99.90;;;;;;5004875;28;19933;-69
2023/04/20 13:22:37;;;;;;;;;;;14.30;99.90;;;;;;5014142;28;19932;-70
2023/04/20 13:25:02;;;;;;;;;;;14.80;99.90;;;;;;5008233;28;19925;-70
2023/04/20 13:27:28;;;;;;;;;;;15.30;99.90;;;;;;4993147;28;20303;-71
2023/04/20 13:29:54;;;;;;;;;;;15.50;99.90;;;;;;5009890;28;19978;-70
2023/04/20 13:32:19;;;;;;;;;;;16.00;99.00;;;;;;5012491;28;20020;-70
2023/04/20 13:34:45;;;;;;;;;;;16.20;98.30;;;;;;5003394;28;20371;-71
2023/04/20 13:37:10;;;;;;;;;;;16.00;97.70;;;;;;5013856;28;19932;-70
2023/04/20 13:39:36;;;;;;;;;;;16.30;98.20;;;;;;5014444;28;19953;-70
2023/04/20 13:42:02;;;;;;;;;;;16.60;98.20;;;;;;4994091;28;20260;-70
2023/04/20 13:44:27;;;;;;;;;;;16.60;96.40;;;;;;4994526;28;19948;-70
2023/04/20 13:46:53;;;;;;;;;;;15.70;96.40;;;;;;5007514;28;19980;-70
2023/04/20 13:49:21;;;;;;;;;;;14.90;97.60;;;;;;5011491;28;19942;-70
2023/04/20 13:51:46;;;;;;;;;;;14.40;98.60;;;;;;5010405;28;19933;-70
2023/04/20 13:54:12;;;;;;;;;;;14.30;99.90;;;;;;4993874;28;19926;-70
2023/04/20 13:56:37;;;;;;;;;;;14.00;99.90;;;;;;5000858;28;19925;-70
2023/04/20 13:59:03;;;;;;;;;;;13.80;99.90;;;;;;5013495;28;20012;-70
2023/04/20 14:01:29;;;;;;;;;;;13.90;99.90;;;;;;5010193;28;20008;-69
2023/04/20 14:03:55;;;;;;;;;;;13.60;99.90;;;;;;5015982;28;19976;-70
2023/04/20 14:06:20;;;;;;;;;;;13.40;99.90;;;;;;5005381;28;19956;-70
2023/04/20 14:08:47;;;;;;;;;;;13.00;99.90;;;;;;5008850;28;20426;-70
2023/04/20 14:11:12;;;;;;;;;;;13.30;99.90;;;;;;5005402;28;20033;-70
2023/04/20 14:13:38;;;;;;;;;;;13.90;99.90;;;;;;5010064;28;20021;-70
2023/04/20 14:16:10;;;;;;;;;;;13.90;99.30;;;;;;5009078;28;20005;-70
2023/04/20 14:18:36;;;;;;;;;;;13.80;99.30;;;;;;5010782;28;19988;-70
2023/04/20 14:21:02;;;;;;;;;;;13.50;99.40;;;;;;5011102;28;19926;-69